Attawapiskat Airport
CYAT : now visible

Airfield :











YOU CAN JOIN US ON...

 
LOGIN :

Register | Disclaimer

   EN    FR    IT 

 









Legend :    VFR   Marginal VFR   IFR   Intensive IFR   Very Intensive IFR
Visi :
Ceiling :
>= 8 km
>= 3000ft
5 to 8 km
1000 to 3000 ft
1500m to 5 km
500 to 1000 ft
800 to 1500m
200 to 500 ft
< 800m
< 200 ft
Symbols :   Thunderstorms  Fog  Heavy snow  Heavy precipitations  Wind > 20 kt






- Airport Elevation : 31 ft
- IATA code : YAT


CYAT - Attawapiskat

CURRENT METAR :
  • 291500Z AUTO 21006KT 9SM -SN OVC011 M12/M14 A3038 RMK SLP292

EXPIRED METARs :
  • 291400Z AUTO 23004KT 9SM -SN OVC011 M12/M14 A3038 RMK SLP290
  • 291343Z AUTO 23005KT 170V250 9SM -SN OVC011 M13/M14 A3038 RMK SLP290
  • 291329Z AUTO 20003KT 180V240 9SM OVC011 M13/M14 A3038 RMK SLP290
  • 291319Z AUTO 21005KT 9SM -SN OVC011 M13/M14 A3038 RMK SLP289
  • 291300Z AUTO 23004KT 190V250 9SM -SN OVC013 M13/M14 A3038 RMK SLP289
  • 291243Z AUTO 24005KT 180V250 9SM OVC013 M12/M14 A3037 RMK SLP287

TAF TAF CYAT
Valid from the 29 at 14:00 until the 29 at 20:00 UTC


291338Z 2914/2920 VRB03KT P6SM -SN OVC015
TEMPO 2916/2920 P6SM NSW SCT015
BECMG 2916/2918 22008KT RMK FCST BASED ON AUTO OBS. NXT FCST WILL BE ISSUED AT 300945Z



MET'MAP, your aeronautical weather chart ! - Copyright ORBIFLY December 2007 - Disclaimer

ORBIFLY MET'MAP TEAM :

Programming & Development : Alexandra Zaïnal
Concept & original design : Baudouin d'Aumeries
Assistance for programming : Marc-Olivier Méhu
Technical & hardware support : Manuel Goepfert

Contact : metmap@orbifly.com




SOURCES & CREDITS :

   NOAA       Earth
Advisory